Time;durP1;ratioP1;P1;durP2;ratioP2;P2;SDS_P1;SDS_P2;PMS_P1;PMS_P2;Temp;Humidity;BMP_temperature;BMP_pressure;BME280_temperature;BME280_humidity;BME280_pressure;Samples;Min_cycle;Max_cycle;Signal;HPM_P1;HPM_P2
2023/04/20 00:01:17;;;;;;;8.98;2.10;;;9.00;74.30;;;;;;5080887;28;20055;-49
2023/04/20 00:03:45;;;;;;;5.10;2.05;;;8.90;74.20;;;;;;5072721;28;20036;-45
2023/04/20 00:06:12;;;;;;;7.65;2.38;;;8.90;74.50;;;;;;5072905;28;20107;-49
2023/04/20 00:08:42;;;;;;;9.32;2.60;;;8.90;75.30;;;;;;5074700;28;20178;-47
2023/04/20 00:11:12;;;;;;;5.63;2.35;;;8.80;75.30;;;;;;5091233;28;20047;-47
2023/04/20 00:13:40;;;;;;;5.65;2.25;;;8.80;75.20;;;;;;5085164;28;20028;-44
2023/04/20 00:16:06;;;;;;;6.88;2.33;;;8.80;75.30;;;;;;5066726;28;20068;-45
2023/04/20 00:18:31;;;;;;;5.18;3.00;;;8.80;75.50;;;;;;5055352;28;20082;-45
2023/04/20 00:20:58;;;;;;;5.40;2.30;;;8.80;75.50;;;;;;5066477;28;20115;-45
2023/04/20 00:23:25;;;;;;;4.63;1.85;;;8.70;75.20;;;;;;5074974;28;20036;-48
2023/04/20 00:25:53;;;;;;;5.47;2.00;;;8.70;75.10;;;;;;5074216;28;20307;-45
2023/04/20 00:28:23;;;;;;;4.00;2.17;;;8.80;75.30;;;;;;5060262;28;20036;-46
2023/04/20 00:30:49;;;;;;;5.90;2.28;;;8.80;76.10;;;;;;5072868;28;20028;-45
2023/04/20 00:33:16;;;;;;;7.13;2.80;;;8.80;75.80;;;;;;5072834;28;20032;-47
2023/04/20 00:35:43;;;;;;;6.60;2.50;;;8.90;76.10;;;;;;5088541;28;20057;-48
2023/04/20 00:38:11;;;;;;;5.50;2.20;;;8.90;76.30;;;;;;5093119;28;20020;-46
2023/04/20 00:40:41;;;;;;;10.95;2.50;;;8.90;76.40;;;;;;5085255;28;20078;-47
2023/04/20 00:43:12;;;;;;;7.30;1.98;;;8.80;75.80;;;;;;5023811;28;20040;-45
2023/04/20 00:45:38;;;;;;;5.65;2.55;;;8.80;76.10;;;;;;5051289;28;20025;-51
2023/04/20 00:48:05;;;;;;;5.63;2.15;;;8.80;76.60;;;;;;5038230;28;20064;-46
2023/04/20 00:50:33;;;;;;;6.78;1.88;;;8.80;76.50;;;;;;5036655;28;20369;-46
2023/04/20 00:53:01;;;;;;;7.35;2.60;;;8.80;76.10;;;;;;5053670;28;20476;-44
2023/04/20 00:55:31;;;;;;;4.78;2.35;;;8.90;76.20;;;;;;5090277;28;20177;-47
2023/04/20 00:58:00;;;;;;;6.15;2.60;;;8.90;74.20;;;;;;5059687;28;20085;-50
2023/04/20 01:00:27;;;;;;;6.72;2.47;;;8.90;71.80;;;;;;5053398;28;20040;-48
2023/04/20 01:02:55;;;;;;;5.18;2.10;;;8.90;71.70;;;;;;5054449;28;20044;-48
2023/04/20 01:05:21;;;;;;;6.88;2.17;;;8.90;70.30;;;;;;5084920;28;20114;-50
2023/04/20 01:07:59;;;;;;;6.60;2.97;;;9.00;69.30;;;;;;5075020;28;20197;-50
2023/04/20 01:10:26;;;;;;;4.03;2.13;;;9.10;68.60;;;;;;5090095;28;20032;-45
2023/04/20 01:12:52;;;;;;;8.90;2.33;;;9.20;68.30;;;;;;5073730;28;20142;-50
2023/04/20 01:15:18;;;;;;;6.10;2.05;;;9.20;67.30;;;;;;5088801;28;20127;-49
2023/04/20 01:17:48;;;;;;;4.88;2.22;;;9.20;68.00;;;;;;5072429;28;20033;-45
2023/04/20 01:20:22;;;;;;;7.07;2.28;;;9.30;69.00;;;;;;5072677;28;20082;-48
2023/04/20 01:22:52;;;;;;;8.93;3.13;;;9.20;70.10;;;;;;5072576;28;20033;-45
2023/04/20 01:25:22;;;;;;;7.43;2.55;;;9.10;69.10;;;;;;5083333;28;20058;-46
2023/04/20 01:27:52;;;;;;;7.18;2.15;;;9.00;69.20;;;;;;5089012;28;20032;-45
2023/04/20 01:30:17;;;;;;;11.80;2.38;;;9.00;68.60;;;;;;5076456;28;20486;-46
2023/04/20 01:32:45;;;;;;;6.22;2.28;;;9.00;68.50;;;;;;5076125;28;20059;-47
2023/04/20 01:35:13;;;;;;;7.40;1.60;;;9.00;68.20;;;;;;5088067;28;20030;-50
2023/04/20 01:37:39;;;;;;;6.93;1.95;;;9.00;69.20;;;;;;5091696;28;20341;-47
2023/04/20 01:40:12;;;;;;;5.38;2.00;;;8.90;70.30;;;;;;5048576;28;20082;-49
2023/04/20 01:42:39;;;;;;;9.60;3.70;;;8.90;70.70;;;;;;5054298;28;20040;-48
2023/04/20 01:45:09;;;;;;;5.38;2.30;;;9.00;72.40;;;;;;5077878;28;20454;-47
2023/04/20 01:47:35;;;;;;;8.88;2.60;;;8.90;72.30;;;;;;5087044;28;20111;-49
2023/04/20 01:50:01;;;;;;;9.27;3.10;;;8.90;72.30;;;;;;5069257;28;20381;-49
2023/04/20 01:52:29;;;;;;;7.70;2.60;;;8.90;70.60;;;;;;5074138;28;20099;-47
2023/04/20 01:54:56;;;;;;;7.10;2.78;;;8.90;69.90;;;;;;5077947;28;20031;-45
2023/04/20 01:57:23;;;;;;;6.50;2.30;;;8.90;68.80;;;;;;5092097;28;20056;-47
2023/04/20 01:59:50;;;;;;;7.05;2.63;;;8.90;68.80;;;;;;5064292;28;20028;-47
2023/04/20 02:02:16;;;;;;;7.63;2.47;;;9.00;69.20;;;;;;5075947;28;20032;-45
2023/04/20 02:04:43;;;;;;;7.00;2.05;;;9.00;68.00;;;;;;5075703;28;20343;-48
2023/04/20 02:07:09;;;;;;;8.73;2.75;;;8.90;66.30;;;;;;5065575;28;20428;-46
2023/04/20 02:09:36;;;;;;;4.28;1.65;;;8.90;65.90;;;;;;5087581;28;20043;-49
2023/04/20 02:12:02;;;;;;;6.10;1.67;;;8.90;66.90;;;;;;5072674;28;20024;-48
2023/04/20 02:14:28;;;;;;;7.68;2.30;;;8.90;66.00;;;;;;5079765;28;20032;-47
2023/04/20 02:16:55;;;;;;;4.85;2.45;;;8.90;65.90;;;;;;5083925;28;20073;-45
2023/04/20 02:19:23;;;;;;;4.82;2.30;;;8.90;66.50;;;;;;5095321;28;20025;-45
2023/04/20 02:21:50;;;;;;;6.90;2.30;;;8.90;66.40;;;;;;5061150;28;20025;-52
2023/04/20 02:24:17;;;;;;;7.32;2.63;;;8.80;66.30;;;;;;5089501;28;20048;-45
2023/04/20 02:26:42;;;;;;;9.43;2.50;;;8.90;66.00;;;;;;5092092;28;20039;-47
2023/04/20 02:29:09;;;;;;;5.80;1.83;;;8.90;65.30;;;;;;5074528;28;20118;-45
2023/04/20 02:31:36;;;;;;;9.07;2.08;;;8.90;66.40;;;;;;5068765;28;20067;-47
2023/04/20 02:34:05;;;;;;;4.50;2.53;;;8.80;66.30;;;;;;5095055;28;20031;-46
2023/04/20 02:36:34;;;;;;;6.03;2.03;;;8.70;65.80;;;;;;5062643;28;20450;-45
2023/04/20 02:38:59;;;;;;;5.70;2.30;;;8.70;66.40;;;;;;5075530;28;20044;-45
2023/04/20 02:41:29;;;;;;;5.80;1.85;;;8.80;65.70;;;;;;5057261;28;20027;-48
2023/04/20 02:43:56;;;;;;;3.90;1.38;;;8.70;65.90;;;;;;5057021;28;20024;-46
2023/04/20 02:46:24;;;;;;;7.72;2.58;;;8.70;65.60;;;;;;5083710;28;20464;-45
2023/04/20 02:48:51;;;;;;;7.63;2.03;;;8.70;65.50;;;;;;5094620;28;20065;-47
2023/04/20 02:51:18;;;;;;;6.63;1.50;;;8.70;65.80;;;;;;5093248;28;20026;-46
2023/04/20 02:53:45;;;;;;;6.20;2.55;;;8.60;65.00;;;;;;5094767;28;20066;-46
2023/04/20 02:56:13;;;;;;;7.00;2.05;;;8.70;65.60;;;;;;5064975;28;20020;-48
2023/04/20 02:58:38;;;;;;;5.22;2.00;;;8.60;65.40;;;;;;5094344;28;20084;-45
2023/04/20 03:01:10;;;;;;;10.57;2.22;;;8.60;64.60;;;;;;5084831;28;20028;-48
2023/04/20 03:03:37;;;;;;;5.15;1.80;;;8.60;62.70;;;;;;5073528;28;20028;-51
2023/04/20 03:06:04;;;;;;;8.38;2.08;;;8.60;62.60;;;;;;5069709;28;20035;-46
2023/04/20 03:08:33;;;;;;;4.75;2.10;;;8.60;64.30;;;;;;5073578;28;20444;-49
2023/04/20 03:11:00;;;;;;;5.07;1.70;;;8.60;63.30;;;;;;5082925;28;20036;-46
2023/04/20 03:13:35;;;;;;;8.75;2.35;;;8.60;63.10;;;;;;5073333;28;20107;-46
2023/04/20 03:16:00;;;;;;;9.02;2.13;;;8.60;63.50;;;;;;5055601;28;20044;-45
2023/04/20 03:18:29;;;;;;;3.65;1.60;;;8.60;62.70;;;;;;5074259;28;20111;-46
2023/04/20 03:20:56;;;;;;;7.55;2.80;;;8.60;64.90;;;;;;5072837;28;20055;-48
2023/04/20 03:23:22;;;;;;;4.85;1.80;;;8.50;65.30;;;;;;5056225;28;20028;-48
2023/04/20 03:25:48;;;;;;;6.80;2.15;;;8.40;64.30;;;;;;5083927;28;20066;-49
2023/04/20 03:28:15;;;;;;;5.60;1.85;;;8.40;64.90;;;;;;5073793;28;20102;-48
2023/04/20 03:30:43;;;;;;;5.57;1.95;;;8.40;65.50;;;;;;5061551;28;20035;-50
2023/04/20 03:33:13;;;;;;;5.53;2.33;;;8.30;65.90;;;;;;5090565;28;20032;-48
2023/04/20 03:35:41;;;;;;;;;;;8.30;66.90;;;;;;5087176;28;20028;-45
2023/04/20 03:38:07;;;;;;;5.32;1.67;;;8.30;67.60;;;;;;5077007;28;19930;-45
2023/04/20 03:40:35;;;;;;;6.45;1.73;;;8.30;67.30;;;;;;5073792;28;20438;-45
2023/04/20 03:43:00;;;;;;;14.45;2.00;;;8.20;66.80;;;;;;5073410;28;20039;-46
2023/04/20 03:45:29;;;;;;;4.72;2.15;;;8.30;65.90;;;;;;5074858;28;20032;-48
2023/04/20 03:47:58;;;;;;;6.13;2.17;;;8.30;65.90;;;;;;5073628;28;20121;-51
2023/04/20 03:50:25;;;;;;;4.70;2.15;;;8.20;67.10;;;;;;5068453;28;20059;-47
2023/04/20 03:52:56;;;;;;;6.70;1.75;;;8.20;67.50;;;;;;5073339;28;21886;-45
2023/04/20 03:55:26;;;;;;;5.15;2.17;;;8.20;65.20;;;;;;5064901;28;20032;-46
2023/04/20 03:57:53;;;;;;;3.15;1.67;;;8.30;65.10;;;;;;5075890;28;20125;-48
2023/04/20 04:00:20;;;;;;;5.05;1.60;;;8.20;64.50;;;;;;5081499;28;20032;-47
2023/04/20 04:02:49;;;;;;;4.03;1.63;;;8.20;65.50;;;;;;5073041;28;20021;-44
2023/04/20 04:05:17;;;;;;;3.30;1.73;;;8.10;65.60;;;;;;5080733;28;20028;-44
2023/04/20 04:07:44;;;;;;;3.80;1.83;;;8.10;65.60;;;;;;5093399;28;20092;-47
2023/04/20 04:10:11;;;;;;;6.60;2.15;;;8.10;66.40;;;;;;5080755;28;20879;-51
2023/04/20 04:12:40;;;;;;;7.75;1.80;;;8.10;66.30;;;;;;5093625;28;20027;-50
2023/04/20 04:15:08;;;;;;;6.47;2.03;;;8.00;66.80;;;;;;5080122;28;20036;-47
2023/04/20 04:17:35;;;;;;;4.82;2.08;;;8.00;66.40;;;;;;5091606;28;20130;-45
2023/04/20 04:20:06;;;;;;;4.47;1.92;;;7.90;65.50;;;;;;5069118;28;20664;-46
2023/04/20 04:22:34;;;;;;;7.95;2.00;;;8.00;66.70;;;;;;5073206;28;20032;-46
2023/04/20 04:25:01;;;;;;;15.50;3.92;;;7.90;65.90;;;;;;5075292;28;20027;-45
2023/04/20 04:27:33;;;;;;;6.78;2.55;;;7.90;66.60;;;;;;5073230;28;20029;-44
2023/04/20 04:30:03;;;;;;;4.95;1.92;;;7.90;69.80;;;;;;5075878;28;20020;-45
2023/04/20 04:32:33;;;;;;;5.25;2.53;;;7.70;70.60;;;;;;5093141;28;20384;-45
2023/04/20 04:35:00;;;;;;;;;;;7.60;70.80;;;;;;5075907;28;20031;-44
2023/04/20 04:37:27;;;;;;;4.68;1.88;;;7.50;70.70;;;;;;5092736;28;19914;-43
2023/04/20 04:39:57;;;;;;;5.18;2.05;;;7.40;69.80;;;;;;5090798;28;20024;-48
2023/04/20 04:42:24;;;;;;;;;;;7.40;69.50;;;;;;5079773;28;20044;-48
2023/04/20 04:44:54;;;;;;;4.85;2.03;;;7.40;68.50;;;;;;5073780;28;19927;-47
2023/04/20 04:47:24;;;;;;;3.90;1.98;;;7.40;69.40;;;;;;5091314;28;20063;-46
2023/04/20 04:49:53;;;;;;;3.58;1.50;;;7.40;68.90;;;;;;5076856;28;20033;-45
2023/04/20 04:52:21;;;;;;;7.10;2.13;;;7.40;68.50;;;;;;5071356;28;20093;-45
2023/04/20 04:54:48;;;;;;;5.57;2.00;;;7.40;69.30;;;;;;5072739;28;20063;-47
2023/04/20 04:57:15;;;;;;;3.97;2.03;;;7.50;70.50;;;;;;5072418;28;20048;-45
2023/04/20 04:59:45;;;;;;;5.00;2.08;;;7.40;69.70;;;;;;5080455;28;20051;-48
2023/04/20 05:02:11;;;;;;;2.97;1.52;;;7.40;68.60;;;;;;5083496;28;20028;-51
2023/04/20 05:04:38;;;;;;;4.55;1.65;;;7.40;69.60;;;;;;5088346;28;20032;-48
2023/04/20 05:07:06;;;;;;;11.13;2.10;;;7.40;68.60;;;;;;5069757;28;20103;-48
2023/04/20 05:09:32;;;;;;;11.07;2.20;;;7.50;69.70;;;;;;5068462;28;20028;-44
2023/04/20 05:11:59;;;;;;;4.93;1.85;;;7.50;69.20;;;;;;5068483;28;20526;-49
2023/04/20 05:14:27;;;;;;;9.10;1.88;;;7.50;69.00;;;;;;5072847;28;20365;-47
2023/04/20 05:16:53;;;;;;;5.05;2.15;;;7.50;69.40;;;;;;5083706;28;20126;-47
2023/04/20 05:19:21;;;;;;;5.70;1.95;;;7.50;67.40;;;;;;5081725;28;20154;-46
2023/04/20 05:21:47;;;;;;;4.13;1.60;;;7.50;68.30;;;;;;5086598;28;20024;-44
2023/04/20 05:24:12;;;;;;;7.95;3.03;;;7.50;68.60;;;;;;5089583;28;20389;-47
2023/04/20 05:26:39;;;;;;;7.00;2.25;;;7.50;68.60;;;;;;5065736;28;20025;-49
2023/04/20 05:29:08;;;;;;;8.02;2.35;;;7.40;69.10;;;;;;5082551;28;20079;-46
2023/04/20 05:31:34;;;;;;;6.05;1.60;;;7.40;69.20;;;;;;5087392;28;20156;-46
2023/04/20 05:34:01;;;;;;;5.20;1.80;;;7.50;68.70;;;;;;5091017;28;20035;-46
2023/04/20 05:36:29;;;;;;;6.07;2.30;;;7.50;68.90;;;;;;5082212;28;20020;-46
2023/04/20 05:38:56;;;;;;;5.85;2.33;;;7.40;70.20;;;;;;5080773;28;20334;-47
2023/04/20 05:41:26;;;;;;;3.90;2.03;;;7.40;69.00;;;;;;5073236;28;20044;-46
2023/04/20 05:43:55;;;;;;;6.95;2.88;;;7.40;70.20;;;;;;5080131;28;20495;-48
2023/04/20 05:46:23;;;;;;;7.45;2.67;;;7.40;70.80;;;;;;5065687;28;20051;-45
2023/04/20 05:48:50;;;;;;;9.50;2.47;;;7.40;70.20;;;;;;5088644;28;20028;-47
2023/04/20 05:51:16;;;;;;;6.38;2.30;;;7.40;72.20;;;;;;5058523;28;20028;-47
2023/04/20 05:53:43;;;;;;;6.53;2.08;;;7.30;73.90;;;;;;5079647;28;20027;-44
2023/04/20 05:56:12;;;;;;;5.05;2.58;;;7.20;74.10;;;;;;5087655;28;20338;-43
2023/04/20 05:58:38;;;;;;;4.22;2.17;;;7.10;73.40;;;;;;5095207;28;20043;-45
2023/04/20 06:01:04;;;;;;;4.03;2.05;;;7.10;73.20;;;;;;5083236;28;20032;-44
2023/04/20 06:03:31;;;;;;;6.57;2.35;;;7.10;73.40;;;;;;5073782;28;20037;-45
2023/04/20 06:05:58;;;;;;;7.45;2.28;;;7.10;72.60;;;;;;5085810;28;20060;-48
2023/04/20 06:08:25;;;;;;;7.55;2.38;;;7.10;72.50;;;;;;5076325;28;20457;-46
2023/04/20 06:10:56;;;;;;;6.53;2.50;;;7.10;72.50;;;;;;5087601;28;20109;-44
2023/04/20 06:13:25;;;;;;;7.00;2.30;;;7.10;71.80;;;;;;5089963;28;20043;-45
2023/04/20 06:15:56;;;;;;;5.50;2.47;;;7.20;71.90;;;;;;5083571;28;20044;-45
2023/04/20 06:18:23;;;;;;;6.45;2.33;;;7.20;72.40;;;;;;5067205;28;20025;-46
2023/04/20 06:20:48;;;;;;;5.70;2.00;;;7.20;72.40;;;;;;5091980;28;20445;-48
2023/04/20 06:23:18;;;;;;;4.47;2.28;;;7.20;72.10;;;;;;5090102;28;20036;-46
2023/04/20 06:25:46;;;;;;;7.70;1.90;;;7.20;72.40;;;;;;5092291;28;20452;-46
2023/04/20 06:28:11;;;;;;;4.28;1.95;;;7.20;72.00;;;;;;5057450;28;20032;-50
2023/04/20 06:30:38;;;;;;;4.13;2.33;;;7.20;71.80;;;;;;5078045;28;20409;-49
2023/04/20 06:33:06;;;;;;;5.45;2.58;;;7.20;71.40;;;;;;5085162;28;20483;-44
2023/04/20 06:35:32;;;;;;;6.85;2.33;;;7.20;71.30;;;;;;5074820;28;20056;-46
2023/04/20 06:38:01;;;;;;;5.03;2.30;;;7.20;71.80;;;;;;5065135;28;20098;-49
2023/04/20 06:40:29;;;;;;;4.13;2.47;;;7.20;72.50;;;;;;5094336;28;20040;-47
2023/04/20 06:42:59;;;;;;;7.03;2.35;;;7.20;73.20;;;;;;5075375;28;20121;-46
2023/04/20 06:45:26;;;;;;;4.85;2.35;;;7.20;73.40;;;;;;5092910;28;20042;-46
2023/04/20 06:47:53;;;;;;;5.93;2.50;;;7.20;73.20;;;;;;5077709;28;20385;-47
2023/04/20 06:50:20;;;;;;;4.70;2.22;;;7.30;73.30;;;;;;5087656;28;20047;-47
2023/04/20 06:52:48;;;;;;;7.13;2.25;;;7.20;72.90;;;;;;5094712;28;20027;-45
2023/04/20 06:55:18;;;;;;;6.45;2.58;;;7.20;73.40;;;;;;5071647;28;20024;-46
2023/04/20 06:57:44;;;;;;;6.85;2.63;;;7.30;74.20;;;;;;5083108;28;20028;-46
2023/04/20 07:00:16;;;;;;;7.05;3.10;;;7.30;74.70;;;;;;5066307;28;20055;-44
2023/04/20 07:02:47;;;;;;;4.93;2.40;;;7.20;74.80;;;;;;5048505;28;20111;-47
2023/04/20 07:05:14;;;;;;;7.95;3.92;;;7.30;75.10;;;;;;5054261;28;20462;-47
2023/04/20 07:07:40;;;;;;;7.70;4.22;;;7.30;75.50;;;;;;5053112;28;20039;-49
2023/04/20 07:10:08;;;;;;;6.93;3.83;;;7.30;75.70;;;;;;5086797;28;20012;-46
2023/04/20 07:12:38;;;;;;;6.82;4.07;;;7.30;75.20;;;;;;5051392;28;20036;-47
2023/04/20 07:15:07;;;;;;;5.60;3.13;;;7.20;75.40;;;;;;5067339;28;20020;-48
2023/04/20 07:17:35;;;;;;;6.97;3.60;;;7.20;75.30;;;;;;5082678;28;20036;-43
2023/04/20 07:20:07;;;;;;;8.20;3.45;;;7.20;76.30;;;;;;5088646;28;20682;-42
2023/04/20 07:22:38;;;;;;;6.32;3.33;;;7.20;77.20;;;;;;5087289;28;20434;-44
2023/04/20 07:25:09;;;;;;;12.00;3.58;;;7.10;77.90;;;;;;5066428;28;20092;-45
2023/04/20 07:27:40;;;;;;;7.68;3.22;;;7.00;78.80;;;;;;5090355;28;20051;-50
2023/04/20 07:30:09;;;;;;;16.02;4.75;;;7.00;79.80;;;;;;5052374;28;20039;-49
2023/04/20 07:32:36;;;;;;;8.38;3.95;;;6.90;80.60;;;;;;5082958;28;20056;-49
2023/04/20 07:35:05;;;;;;;6.93;3.72;;;6.90;81.00;;;;;;5072731;28;20334;-47
2023/04/20 07:37:34;;;;;;;8.93;5.95;;;6.90;81.00;;;;;;5072744;28;20399;-52
2023/04/20 07:40:04;;;;;;;8.07;4.13;;;6.90;81.30;;;;;;5086099;28;20059;-51
2023/04/20 07:42:32;;;;;;;9.48;4.35;;;6.90;82.20;;;;;;5089224;28;20070;-50
2023/04/20 07:45:01;;;;;;;6.13;3.35;;;6.80;82.60;;;;;;5068496;28;20032;-51
2023/04/20 07:47:26;;;;;;;7.88;3.67;;;6.80;82.60;;;;;;5071939;28;20032;-50
2023/04/20 07:49:53;;;;;;;13.23;5.75;;;6.90;82.80;;;;;;5070260;28;20149;-51
2023/04/20 07:52:25;;;;;;;8.85;4.93;;;6.90;82.90;;;;;;5086259;28;20024;-49
2023/04/20 07:54:57;;;;;;;14.45;8.45;;;6.90;83.10;;;;;;5087714;28;20032;-52
2023/04/20 07:57:25;;;;;;;12.10;5.57;;;6.90;82.80;;;;;;5072007;28;20096;-52
2023/04/20 07:59:51;;;;;;;30.42;20.63;;;6.90;83.10;;;;;;5068866;28;20040;-51
2023/04/20 08:02:20;;;;;;;13.38;7.20;;;6.90;83.20;;;;;;5065946;28;20078;-46
2023/04/20 08:04:45;;;;;;;13.88;8.40;;;6.90;83.40;;;;;;5082985;28;20066;-46
2023/04/20 08:07:13;;;;;;;10.48;5.30;;;6.90;83.50;;;;;;5088262;28;20028;-46
2023/04/20 08:09:43;;;;;;;11.68;4.53;;;6.90;83.20;;;;;;5086700;28;20029;-47
2023/04/20 08:12:12;;;;;;;8.40;4.40;;;6.90;83.00;;;;;;5069853;28;20419;-45
2023/04/20 08:14:40;;;;;;;11.80;7.55;;;6.90;82.90;;;;;;5067922;28;20194;-46
2023/04/20 08:17:07;;;;;;;12.95;5.00;;;7.00;83.00;;;;;;5087267;28;20044;-45
2023/04/20 08:19:37;;;;;;;9.48;4.85;;;7.10;83.40;;;;;;5081279;28;20864;-46
2023/04/20 08:22:15;;;;;;;10.77;6.78;;;7.20;83.10;;;;;;5070464;28;20028;-46
2023/04/20 08:24:42;;;;;;;9.68;4.53;;;7.20;82.40;;;;;;5084285;28;20054;-51
2023/04/20 08:27:08;;;;;;;9.63;5.70;;;7.30;82.90;;;;;;5069464;28;20115;-52
2023/04/20 08:29:34;;;;;;;11.32;6.60;;;7.20;82.40;;;;;;5085630;28;20111;-47
2023/04/20 08:31:59;;;;;;;16.38;12.25;;;7.20;83.10;;;;;;5084291;28;20024;-47
2023/04/20 08:34:30;;;;;;;10.55;6.88;;;7.30;83.80;;;;;;5085253;28;20404;-46
2023/04/20 08:36:58;;;;;;;11.65;7.30;;;7.30;83.30;;;;;;5085980;28;20036;-45
2023/04/20 08:39:24;;;;;;;9.77;6.57;;;7.40;83.40;;;;;;5062419;28;20036;-49
2023/04/20 08:41:54;;;;;;;10.55;6.03;;;7.30;83.30;;;;;;5083161;28;21302;-45
2023/04/20 08:44:23;;;;;;;11.93;5.50;;;7.30;82.80;;;;;;5080570;28;20051;-45
2023/04/20 08:46:53;;;;;;;11.93;5.35;;;7.30;83.40;;;;;;5086125;28;20036;-45
2023/04/20 08:49:21;;;;;;;10.15;4.07;;;7.40;83.70;;;;;;5069895;28;20044;-46
2023/04/20 08:51:48;;;;;;;10.20;6.55;;;7.40;83.70;;;;;;5086755;28;20028;-46
2023/04/20 08:54:15;;;;;;;9.18;4.75;;;7.30;83.80;;;;;;5084399;28;20415;-46
2023/04/20 08:56:45;;;;;;;13.30;4.97;;;7.40;83.80;;;;;;5070646;28;20020;-46
2023/04/20 08:59:13;;;;;;;12.60;5.22;;;7.40;83.90;;;;;;5051734;28;20154;-46
2023/04/20 09:01:43;;;;;;;10.85;4.78;;;7.40;84.20;;;;;;5067661;28;20456;-46
2023/04/20 09:04:23;;;;;;;10.43;5.50;;;7.50;84.10;;;;;;5072319;28;20028;-44
2023/04/20 09:06:54;;;;;;;10.00;6.43;;;7.50;84.10;;;;;;5073631;28;20062;-46
2023/04/20 09:09:24;;;;;;;14.35;7.22;;;7.50;84.10;;;;;;5068226;28;20181;-47
2023/04/20 09:12:09;;;;;;;12.68;6.75;;;7.50;83.80;;;;;;5092325;28;20032;-46
2023/04/20 09:14:43;;;;;;;12.07;7.22;;;7.50;84.20;;;;;;5089042;28;20035;-47
2023/04/20 09:17:13;;;;;;;13.70;5.97;;;7.60;83.90;;;;;;5071764;28;20147;-45
2023/04/20 09:19:43;;;;;;;11.25;5.30;;;7.60;84.20;;;;;;5072981;28;20416;-48
2023/04/20 09:22:09;;;;;;;12.00;5.78;;;7.60;84.00;;;;;;5068497;28;20037;-46
2023/04/20 09:24:49;;;;;;;13.43;4.90;;;7.50;84.00;;;;;;5085217;28;20078;-48
2023/04/20 09:27:18;;;;;;;13.95;6.82;;;7.40;83.60;;;;;;5084740;28;20111;-44
2023/04/20 09:30:02;;;;;;;10.38;5.07;;;7.40;84.30;;;;;;5051270;28;20043;-46
2023/04/20 09:32:41;;;;;;;10.98;5.63;;;7.50;84.60;;;;;;5074660;28;20040;-50
2023/04/20 09:35:08;;;;;;;13.18;5.10;;;7.50;85.10;;;;;;5074149;28;20020;-53
2023/04/20 09:37:35;;;;;;;9.38;5.07;;;7.60;85.40;;;;;;5038927;28;20481;-52
2023/04/20 09:40:04;;;;;;;12.48;5.82;;;7.70;85.80;;;;;;5087634;28;20027;-56
2023/04/20 09:42:34;;;;;;;;;;;7.60;85.90;;;;;;5088898;28;20055;-55
2023/04/20 09:45:00;;;;;;;16.58;6.95;;;7.60;86.20;;;;;;5089318;28;19969;-51
2023/04/20 09:47:28;;;;;;;9.23;5.50;;;7.50;85.80;;;;;;5072432;28;20040;-52
2023/04/20 09:49:57;;;;;;;12.23;5.65;;;7.60;86.20;;;;;;5083710;28;20356;-55
2023/04/20 09:52:27;;;;;;;15.48;6.35;;;7.50;86.50;;;;;;5083845;28;20032;-50
2023/04/20 09:54:58;;;;;;;20.35;6.20;;;7.50;86.50;;;;;;5055055;28;20040;-50
2023/04/20 09:57:27;;;;;;;14.10;6.40;;;7.50;86.70;;;;;;5091698;28;20066;-53
2023/04/20 09:59:56;;;;;;;16.63;6.57;;;7.40;87.10;;;;;;5070906;28;20119;-48
2023/04/20 10:02:23;;;;;;;8.52;6.03;;;7.40;87.40;;;;;;5049802;28;20079;-48
2023/04/20 10:04:57;;;;;;;14.38;6.78;;;7.40;87.50;;;;;;5089100;28;20473;-50
2023/04/20 10:07:29;;;;;;;13.60;6.68;;;7.50;87.10;;;;;;5064296;28;20413;-49
2023/04/20 10:10:15;;;;;;;10.52;6.25;;;7.40;87.30;;;;;;5090819;28;20107;-54
2023/04/20 10:12:55;;;;;;;17.40;13.10;;;7.40;87.70;;;;;;5089272;28;20020;-52
2023/04/20 10:15:26;;;;;;;13.05;7.35;;;7.40;87.90;;;;;;5086347;28;20101;-51
2023/04/20 10:17:54;;;;;;;12.75;7.63;;;7.40;88.20;;;;;;5090696;28;20052;-49
2023/04/20 10:20:38;;;;;;;17.08;6.35;;;7.50;88.00;;;;;;5087537;28;20036;-52
2023/04/20 10:23:09;;;;;;;13.77;6.90;;;7.60;88.00;;;;;;5085038;28;20035;-52
2023/04/20 10:25:40;;;;;;;11.68;6.13;;;7.70;87.90;;;;;;5084946;28;20016;-55
2023/04/20 10:28:09;;;;;;;15.88;8.23;;;7.70;87.70;;;;;;5088253;28;20024;-48
2023/04/20 10:30:48;;;;;;;12.10;6.55;;;7.70;87.50;;;;;;5068591;28;20137;-53
2023/04/20 10:33:16;;;;;;;11.68;6.68;;;7.60;87.30;;;;;;5074300;28;20030;-51
2023/04/20 10:35:58;;;;;;;11.85;6.90;;;7.60;87.50;;;;;;5089283;28;20084;-51
2023/04/20 10:38:38;;;;;;;13.68;7.30;;;7.60;87.70;;;;;;5071753;28;20040;-49
2023/04/20 10:41:23;;;;;;;14.75;7.03;;;7.50;87.90;;;;;;5087695;28;20036;-49
2023/04/20 10:43:51;;;;;;;11.85;6.30;;;7.60;87.90;;;;;;5090501;28;20044;-53
2023/04/20 10:46:21;;;;;;;14.18;6.57;;;7.70;87.90;;;;;;5089167;28;20032;-53
2023/04/20 10:48:57;;;;;;;19.48;7.55;;;7.70;87.70;;;;;;5091257;28;20032;-51
2023/04/20 10:51:24;;;;;;;17.17;9.20;;;7.80;87.90;;;;;;5086557;28;20043;-47
2023/04/20 10:54:06;;;;;;;13.02;6.82;;;7.90;87.90;;;;;;5039645;28;20035;-47
2023/04/20 10:56:50;;;;;;;13.55;6.68;;;7.90;87.70;;;;;;5086668;28;20020;-48
2023/04/20 10:59:23;;;;;;;13.40;7.72;;;7.90;87.60;;;;;;5087813;28;20040;-49
2023/04/20 11:01:54;;;;;;;14.05;7.97;;;8.00;87.40;;;;;;5070656;28;20051;-48
2023/04/20 11:04:37;;;;;;;;;;;8.40;87.70;;;;;;5089205;28;20028;-46
2023/04/20 11:07:12;;;;;;;12.32;7.72;;;9.00;87.80;;;;;;5088685;28;20230;-46
2023/04/20 11:09:43;;;;;;;13.55;7.72;;;9.70;86.90;;;;;;5090933;28;20052;-45
2023/04/20 11:12:13;;;;;;;13.98;6.05;;;10.00;85.30;;;;;;5086246;28;20490;-45
2023/04/20 11:15:01;;;;;;;8.85;5.63;;;10.00;82.90;;;;;;5087411;28;20052;-45
2023/04/20 11:17:32;;;;;;;17.58;9.85;;;10.00;82.00;;;;;;5084253;28;20511;-44
2023/04/20 11:20:17;;;;;;;14.68;6.40;;;9.90;82.00;;;;;;5090952;28;20473;-43
2023/04/20 11:22:55;;;;;;;11.23;6.93;;;9.90;82.40;;;;;;5090010;28;20035;-43
2023/04/20 11:25:23;;;;;;;13.38;5.72;;;9.90;82.90;;;;;;5068048;28;20130;-42
2023/04/20 11:27:50;;;;;;;13.00;6.32;;;10.00;82.10;;;;;;5087923;28;20055;-42
2023/04/20 11:30:18;;;;;;;8.95;5.53;;;10.20;80.70;;;;;;5086941;28;20111;-45
2023/04/20 11:32:53;;;;;;;12.68;6.13;;;10.20;80.60;;;;;;5083975;28;20072;-42
2023/04/20 11:35:20;;;;;;;10.43;5.82;;;10.10;80.10;;;;;;5088533;28;20048;-42
2023/04/20 11:38:05;;;;;;;12.90;6.65;;;10.00;81.30;;;;;;5085260;28;20039;-43
2023/04/20 11:40:31;;;;;;;10.88;5.80;;;10.10;81.00;;;;;;5057588;28;20024;-44
2023/04/20 11:42:58;;;;;;;9.57;6.25;;;9.90;79.30;;;;;;5082267;28;20035;-43
2023/04/20 11:45:32;;;;;;;11.50;6.55;;;9.90;80.40;;;;;;5069008;28;20039;-43
2023/04/20 11:47:58;;;;;;;10.23;5.85;;;9.80;80.50;;;;;;5087779;28;20044;-44
2023/04/20 11:50:24;;;;;;;12.20;6.72;;;9.90;80.50;;;;;;5090536;28;20032;-43
2023/04/20 11:52:51;;;;;;;9.75;6.30;;;9.70;80.70;;;;;;5070416;28;20040;-42
2023/04/20 11:55:21;;;;;;;9.88;6.28;;;9.80;80.80;;;;;;5085997;28;20024;-44
2023/04/20 11:57:52;;;;;;;13.85;6.57;;;10.10;82.20;;;;;;5090020;28;20052;-45
2023/04/20 12:00:19;;;;;;;10.93;6.10;;;10.40;80.10;;;;;;5087716;28;20057;-44
2023/04/20 12:02:47;;;;;;;11.93;6.85;;;10.50;80.00;;;;;;5084064;28;20464;-46
2023/04/20 12:05:14;;;;;;;10.05;5.72;;;10.70;79.40;;;;;;5085530;28;20040;-43
2023/04/20 12:07:42;;;;;;;11.13;5.40;;;10.70;79.30;;;;;;5084338;28;20038;-45
2023/04/20 12:10:08;;;;;;;11.30;7.00;;;10.90;79.60;;;;;;5086580;28;20103;-44
2023/04/20 12:12:35;;;;;;;11.10;6.57;;;10.70;78.00;;;;;;5086562;28;20118;-47
2023/04/20 12:15:03;;;;;;;9.80;5.40;;;10.60;79.00;;;;;;5071252;28;20032;-47
2023/04/20 12:17:28;;;;;;;8.60;5.88;;;10.50;78.90;;;;;;5083874;28;20044;-44
2023/04/20 12:20:01;;;;;;;9.32;5.30;;;10.40;79.00;;;;;;5089922;28;20439;-44
2023/04/20 12:22:27;;;;;;;11.80;6.30;;;10.20;79.30;;;;;;5087962;28;20784;-44
2023/04/20 12:24:54;;;;;;;12.30;4.93;;;10.20;79.80;;;;;;5085606;28;20024;-46
2023/04/20 12:27:19;;;;;;;10.60;5.95;;;10.20;80.10;;;;;;5071168;28;20105;-44
2023/04/20 12:29:55;;;;;;;10.25;4.95;;;10.20;79.10;;;;;;5087251;28;20024;-44
2023/04/20 12:32:22;;;;;;;11.95;6.28;;;10.10;79.90;;;;;;5082016;28;20047;-46
2023/04/20 12:34:50;;;;;;;20.30;13.02;;;10.00;80.30;;;;;;5065084;28;21648;-44
2023/04/20 12:37:19;;;;;;;27.58;16.35;;;9.90;80.60;;;;;;5085117;28;20056;-46
2023/04/20 12:39:45;;;;;;;15.00;9.90;;;9.90;80.70;;;;;;5082730;28;20111;-44
2023/04/20 12:42:12;;;;;;;18.40;13.38;;;10.00;81.00;;;;;;5086161;28;20142;-44
2023/04/20 12:44:38;;;;;;;7.97;5.65;;;10.10;79.90;;;;;;5069005;28;20032;-44
2023/04/20 12:47:03;;;;;;;8.95;5.80;;;10.10;80.40;;;;;;5084412;28;20055;-45
2023/04/20 12:49:30;;;;;;;12.10;6.30;;;10.20;80.20;;;;;;5088152;28;20060;-47
2023/04/20 12:51:58;;;;;;;7.68;5.25;;;10.20;80.10;;;;;;5069427;28;20539;-44
2023/04/20 12:54:24;;;;;;;10.07;5.43;;;10.20;80.60;;;;;;5062092;28;20032;-43
2023/04/20 12:56:51;;;;;;;9.65;5.47;;;10.20;80.00;;;;;;5083358;28;20089;-45
2023/04/20 12:59:18;;;;;;;10.07;6.25;;;10.30;80.20;;;;;;5082357;28;20037;-44
2023/04/20 13:01:45;;;;;;;9.93;5.78;;;10.40;80.10;;;;;;5087774;28;20350;-46